Time;durP1;ratioP1;P1;durP2;ratioP2;P2;SDS_P1;SDS_P2;PMS_P1;PMS_P2;Temp;Humidity;BMP_temperature;BMP_pressure;BME280_temperature;BME280_humidity;BME280_pressure;Samples;Min_cycle;Max_cycle;Signal;HPM_P1;HPM_P2
2023/11/08 00:00:29;;;;;;;30.33;11.55;;;;;;;;;;6142416;23;20648;-54
2023/11/08 00:03:23;;;;;;;29.90;13.13;;;;;;;;;;6140974;23;20076;-61
2023/11/08 00:06:11;;;;;;;41.58;13.32;;;;;;;;;;6142534;23;20128;-61
2023/11/08 00:09:05;;;;;;;634.13;38.70;;;;;;;;;;6142161;23;20432;-60
2023/11/08 00:11:51;;;;;;;133.48;18.45;;;;;;;;;;6141248;23;20035;-60
2023/11/08 00:14:45;;;;;;;352.17;23.15;;;;;;;;;;6140667;23;20080;-60
2023/11/08 00:17:32;;;;;;;113.38;13.77;;;;;;;;;;6141954;23;20084;-63
2023/11/08 00:20:26;;;;;;;36.10;11.27;;;;;;;;;;6140561;23;20452;-54
2023/11/08 00:23:13;;;;;;;59.05;14.95;;;;;;;;;;6142538;23;20084;-54
2023/11/08 00:26:14;;;;;;;112.60;17.23;;;;;;;;;;6143540;23;20539;-52
2023/11/08 00:29:01;;;;;;;123.78;16.85;;;;;;;;;;6141395;23;20467;-52
2023/11/08 00:31:56;;;;;;;32.25;12.52;;;;;;;;;;6142272;23;20120;-51
2023/11/08 00:34:43;;;;;;;29.42;11.90;;;;;;;;;;6141344;23;20025;-50
2023/11/08 00:37:37;;;;;;;34.22;12.75;;;;;;;;;;6142513;23;20598;-49
2023/11/08 00:40:24;;;;;;;71.30;16.25;;;;;;;;;;6141214;23;20021;-61
2023/11/08 00:43:18;;;;;;;57.45;15.82;;;;;;;;;;6141434;23;20067;-61
2023/11/08 00:46:08;;;;;;;32.35;13.20;;;;;;;;;;6142389;23;20025;-61
2023/11/08 00:49:01;;;;;;;38.67;12.82;;;;;;;;;;6139290;23;20124;-61
2023/11/08 00:51:46;;;;;;;51.22;14.63;;;;;;;;;;6138164;23;20109;-61
2023/11/08 00:54:40;;;;;;;1071.65;66.07;;;;;;;;;;6140530;23;20025;-59
2023/11/08 00:57:30;;;;;;;606.50;35.35;;;;;;;;;;6140722;23;20032;-60
2023/11/08 01:00:21;;;;;;;708.58;39.95;;;;;;;;;;6140093;23;20081;-60
2023/11/08 01:03:08;;;;;;;87.40;15.55;;;;;;;;;;6138226;23;20022;-60
2023/11/08 01:06:02;;;;;;;221.55;19.80;;;;;;;;;;6139902;23;20053;-59
2023/11/08 01:08:49;;;;;;;144.27;15.98;;;;;;;;;;6140975;23;20030;-59
2023/11/08 01:11:43;;;;;;;58.33;13.98;;;;;;;;;;6139310;23;20096;-51
2023/11/08 01:14:30;;;;;;;40.05;12.23;;;;;;;;;;6137725;23;20092;-51
2023/11/08 01:17:24;;;;;;;36.75;11.65;;;;;;;;;;6141174;23;20539;-53
2023/11/08 01:20:12;;;;;;;113.68;14.85;;;;;;;;;;6139278;23;20029;-52
2023/11/08 01:23:05;;;;;;;40.65;12.85;;;;;;;;;;6141810;23;20022;-50
2023/11/08 01:25:59;;;;;;;50.38;13.10;;;;;;;;;;6135561;23;20029;-53
2023/11/08 01:28:54;;;;;;;19.58;8.75;;;;;;;;;;6139038;23;20326;-50
2023/11/08 01:31:42;;;;;;;35.45;12.32;;;;;;;;;;6140275;23;20118;-63
2023/11/08 01:34:36;;;;;;;30.73;10.57;;;;;;;;;;6139863;23;20053;-65
2023/11/08 01:37:29;;;;;;;33.42;11.90;;;;;;;;;;6140576;23;20468;-64
2023/11/08 01:40:23;;;;;;;30.30;11.77;;;;;;;;;;6140604;23;20388;-64
2023/11/08 01:43:29;;;;;;;41.15;12.27;;;;;;;;;;6141897;23;20514;-63
2023/11/08 01:46:23;;;;;;;47.97;13.25;;;;;;;;;;6142125;23;20025;-64
2023/11/08 01:49:18;;;;;;;52.45;12.45;;;;;;;;;;6140934;23;20626;-59
2023/11/08 01:51:46;;;;;;;24.63;11.00;;;;;;;;;;6141224;23;20080;-61
2023/11/08 01:54:20;;;;;;;82.25;14.00;;;;;;;;;;6141467;23;20052;-62
2023/11/08 01:56:47;;;;;;;;;;;;;;;;;;6142353;23;20025;-62
2023/11/08 01:59:24;;;;;;;31.73;10.95;;;;;;;;;;6142097;23;19920;-62
2023/11/08 02:01:51;;;;;;;40.22;10.45;;;;;;;;;;6140544;23;20077;-62
2023/11/08 02:04:45;;;;;;;37.80;12.45;;;;;;;;;;6140037;23;20029;-62
2023/11/08 02:07:39;;;;;;;40.17;12.20;;;;;;;;;;6141963;23;20360;-54
2023/11/08 02:10:26;;;;;;;57.55;13.40;;;;;;;;;;6140994;23;20048;-54
2023/11/08 02:13:21;;;;;;;50.63;13.35;;;;;;;;;;6142813;23;20033;-55
2023/11/08 02:16:07;;;;;;;36.70;12.60;;;;;;;;;;6141078;23;20026;-52
2023/11/08 02:19:00;;;;;;;31.70;11.70;;;;;;;;;;6139442;23;20241;-50
2023/11/08 02:21:55;;;;;;;35.30;11.73;;;;;;;;;;6141894;23;20027;-53
2023/11/08 02:24:44;;;;;;;30.65;11.48;;;;;;;;;;6140117;23;20359;-54
2023/11/08 02:27:36;;;;;;;25.30;10.63;;;;;;;;;;6141903;23;20052;-62
2023/11/08 02:30:23;;;;;;;33.53;11.43;;;;;;;;;;6140425;23;20825;-61
2023/11/08 02:33:17;;;;;;;65.07;14.63;;;;;;;;;;6139258;23;20029;-61
2023/11/08 02:36:04;;;;;;;33.65;11.70;;;;;;;;;;6141020;23;20029;-60
2023/11/08 02:38:58;;;;;;;41.67;11.82;;;;;;;;;;6142095;23;20060;-61
2023/11/08 02:41:46;;;;;;;36.65;11.93;;;;;;;;;;6141088;23;20485;-61
2023/11/08 02:44:40;;;;;;;23.63;10.40;;;;;;;;;;6141990;23;20025;-61
2023/11/08 02:47:27;;;;;;;268.38;19.73;;;;;;;;;;6141928;23;20041;-60
2023/11/08 02:50:21;;;;;;;89.82;12.45;;;;;;;;;;6141642;23;20017;-63
2023/11/08 02:53:08;;;;;;;45.95;11.77;;;;;;;;;;6140411;23;20029;-61
2023/11/08 02:56:02;;;;;;;68.65;14.38;;;;;;;;;;6140166;23;20518;-60
2023/11/08 02:58:49;;;;;;;490.05;27.05;;;;;;;;;;6141639;23;20017;-60
2023/11/08 03:01:44;;;;;;;453.83;24.95;;;;;;;;;;6140106;23;20899;-59
2023/11/08 03:04:31;;;;;;;336.45;20.65;;;;;;;;;;6140130;23;20096;-59
2023/11/08 03:07:27;;;;;;;278.38;17.20;;;;;;;;;;6139776;23;20063;-59
2023/11/08 03:10:19;;;;;;;305.90;19.27;;;;;;;;;;6137748;23;20025;-59
2023/11/08 03:13:06;;;;;;;316.98;20.42;;;;;;;;;;6141354;23;20104;-59
2023/11/08 03:16:01;;;;;;;303.33;18.85;;;;;;;;;;6140619;23;20021;-59
2023/11/08 03:18:57;;;;;;;167.90;16.15;;;;;;;;;;6139633;23;20096;-59
2023/11/08 03:21:49;;;;;;;176.13;15.00;;;;;;;;;;6139310;23;20025;-64
2023/11/08 03:24:36;;;;;;;64.43;10.93;;;;;;;;;;6138866;23;20056;-61
2023/11/08 03:27:36;;;;;;;69.13;11.18;;;;;;;;;;6112271;23;20530;-61
2023/11/08 03:30:24;;;;;;;73.97;11.68;;;;;;;;;;6112401;23;20592;-60
2023/11/08 03:33:18;;;;;;;99.18;12.43;;;;;;;;;;6110553;23;20073;-61
2023/11/08 03:36:05;;;;;;;130.45;14.27;;;;;;;;;;6111070;23;20069;-61
2023/11/08 03:39:00;;;;;;;40.30;10.25;;;;;;;;;;6112240;23;20663;-63
2023/11/08 03:41:47;;;;;;;64.85;11.85;;;;;;;;;;6112056;23;20683;-63
2023/11/08 03:44:41;;;;;;;149.30;14.30;;;;;;;;;;6112881;23;20541;-63
2023/11/08 03:47:35;;;;;;;159.80;16.08;;;;;;;;;;6110792;23;20105;-63
2023/11/08 03:50:29;;;;;;;127.53;15.88;;;;;;;;;;6111259;23;20100;-63
2023/11/08 03:53:30;;;;;;;153.73;15.05;;;;;;;;;;6111520;23;20026;-63
2023/11/08 03:56:27;;;;;;;61.00;11.15;;;;;;;;;;6111540;23;20033;-62
2023/11/08 03:59:18;;;;;;;77.97;12.35;;;;;;;;;;6110849;23;20037;-54
2023/11/08 04:02:12;;;;;;;391.95;26.00;;;;;;;;;;6112036;23;20081;-48
2023/11/08 04:04:59;;;;;;;831.53;48.00;;;;;;;;;;6111510;23;20105;-52
2023/11/08 04:07:33;;;;;;;874.65;49.33;;;;;;;;;;6111167;23;20033;-53
2023/11/08 04:10:20;;;;;;;541.90;30.88;;;;;;;;;;6110427;23;20021;-54
2023/11/08 04:13:13;;;;;;;429.90;26.52;;;;;;;;;;6113274;23;20073;-54
2023/11/08 04:16:01;;;;;;;434.42;27.00;;;;;;;;;;6110817;23;20022;-51
2023/11/08 04:18:36;;;;;;;226.60;18.40;;;;;;;;;;6110782;23;20037;-55
2023/11/08 04:21:03;;;;;;;193.70;18.48;;;;;;;;;;6112401;23;20026;-63
2023/11/08 04:23:31;;;;;;;131.35;15.68;;;;;;;;;;6112314;23;20026;-63
2023/11/08 04:26:45;;;;;;;188.65;19.70;;;;;;;;;;6133078;23;20726;-63
2023/11/08 04:29:40;;;;;;;407.77;29.58;;;;;;;;;;6140825;23;20030;-63
2023/11/08 04:32:34;;;;;;;234.52;22.90;;;;;;;;;;6141578;23;20100;-63
2023/11/08 04:35:21;;;;;;;142.23;19.75;;;;;;;;;;6140826;23;20057;-53
2023/11/08 04:38:15;;;;;;;183.43;19.67;;;;;;;;;;6141714;23;20017;-60
2023/11/08 04:41:02;;;;;;;95.68;17.48;;;;;;;;;;6141922;23;20109;-60
2023/11/08 04:43:56;;;;;;;163.82;18.00;;;;;;;;;;6142093;23;20031;-60
2023/11/08 04:46:43;;;;;;;191.95;20.58;;;;;;;;;;6138865;23;20017;-60
2023/11/08 04:49:38;;;;;;;203.57;20.88;;;;;;;;;;6138747;23;20467;-60
2023/11/08 04:52:38;;;;;;;298.17;22.23;;;;;;;;;;6140512;23;20479;-60
2023/11/08 04:55:26;;;;;;;605.00;37.25;;;;;;;;;;6137720;23;20480;-60
2023/11/08 04:58:20;;;;;;;169.75;19.42;;;;;;;;;;6137156;23;20523;-59
2023/11/08 05:01:07;;;;;;;142.50;20.50;;;;;;;;;;6139893;23;20813;-59
2023/11/08 05:04:01;;;;;;;174.77;20.15;;;;;;;;;;6140459;23;20021;-60
2023/11/08 05:06:48;;;;;;;113.75;18.95;;;;;;;;;;6141503;23;20030;-60
2023/11/08 05:09:43;;;;;;;134.50;19.70;;;;;;;;;;6139230;23;20132;-60
2023/11/08 05:12:29;;;;;;;96.15;18.45;;;;;;;;;;6141108;23;20034;-60
2023/11/08 05:15:23;;;;;;;120.20;20.02;;;;;;;;;;6141600;23;20029;-63
2023/11/08 05:18:11;;;;;;;243.90;26.73;;;;;;;;;;6141830;23;20057;-63
2023/11/08 05:21:05;;;;;;;262.92;26.55;;;;;;;;;;6140318;23;20030;-63
2023/11/08 05:23:52;;;;;;;171.77;22.40;;;;;;;;;;6139530;23;20021;-63
2023/11/08 05:26:54;;;;;;;157.18;22.27;;;;;;;;;;6139539;23;20026;-63
2023/11/08 05:29:41;;;;;;;110.15;20.10;;;;;;;;;;6139116;23;20836;-55
2023/11/08 05:32:35;;;;;;;87.38;20.48;;;;;;;;;;6137218;23;20025;-65
2023/11/08 05:35:23;;;;;;;220.13;27.58;;;;;;;;;;6137507;23;20030;-65
2023/11/08 05:38:17;;;;;;;175.57;23.20;;;;;;;;;;6138470;23;20018;-65
2023/11/08 05:41:05;;;;;;;317.40;30.27;;;;;;;;;;6138690;23;20104;-65
2023/11/08 05:43:58;;;;;;;225.23;25.55;;;;;;;;;;6136947;23;20456;-65
2023/11/08 05:46:45;;;;;;;166.00;22.63;;;;;;;;;;6136021;23;20084;-65
2023/11/08 05:49:27;;;;;;;168.95;21.30;;;;;;;;;;6140045;23;20072;-60
2023/11/08 05:52:14;;;;;;;564.67;40.50;;;;;;;;;;6139076;23;20025;-55
2023/11/08 05:55:08;;;;;;;269.45;26.75;;;;;;;;;;6138445;23;20021;-54
2023/11/08 05:57:56;;;;;;;299.33;26.17;;;;;;;;;;6125555;23;20080;-54
2023/11/08 06:00:30;;;;;;;452.20;31.63;;;;;;;;;;6127501;23;20029;-54
2023/11/08 06:03:04;;;;;;;198.02;22.92;;;;;;;;;;6140526;23;20021;-53
2023/11/08 06:05:51;;;;;;;178.65;21.02;;;;;;;;;;6140978;23;20028;-60
2023/11/08 06:08:48;;;;;;;228.48;24.10;;;;;;;;;;6141690;23;20060;-64
2023/11/08 06:11:32;;;;;;;126.00;21.17;;;;;;;;;;6141354;23;20029;-62
2023/11/08 06:14:27;;;;;;;219.75;24.05;;;;;;;;;;6141717;23;20026;-62
2023/11/08 06:17:14;;;;;;;188.30;24.45;;;;;;;;;;6140870;23;20561;-62
2023/11/08 06:20:09;;;;;;;150.52;22.40;;;;;;;;;;6141714;23;20036;-62
2023/11/08 06:22:56;;;;;;;291.23;25.70;;;;;;;;;;6142720;23;20021;-62
2023/11/08 06:25:56;;;;;;;227.25;23.08;;;;;;;;;;6140616;23;20538;-60
2023/11/08 06:28:50;;;;;;;157.20;22.75;;;;;;;;;;6141912;23;20030;-62
2023/11/08 06:31:44;;;;;;;242.23;25.40;;;;;;;;;;6140236;23;20033;-63
2023/11/08 06:34:31;;;;;;;685.75;47.92;;;;;;;;;;6141230;23;20026;-63
2023/11/08 06:37:25;;;;;;;201.98;22.90;;;;;;;;;;6140580;23;20607;-63
2023/11/08 06:40:19;;;;;;;162.73;20.73;;;;;;;;;;6139754;23;20018;-64
2023/11/08 06:43:06;;;;;;;433.48;32.78;;;;;;;;;;6141536;23;20025;-54
2023/11/08 06:46:00;;;;;;;152.52;22.33;;;;;;;;;;6140558;23;20034;-60
2023/11/08 06:48:47;;;;;;;307.13;27.80;;;;;;;;;;6140518;23;20026;-59
2023/11/08 06:51:41;;;;;;;569.50;37.72;;;;;;;;;;6139665;23;20021;-60
2023/11/08 06:54:28;;;;;;;243.07;28.42;;;;;;;;;;6142552;23;20408;-59
2023/11/08 06:57:22;;;;;;;263.38;26.05;;;;;;;;;;6141584;23;20025;-60
2023/11/08 07:00:14;;;;;;;443.13;31.85;;;;;;;;;;6140843;23;20109;-60
2023/11/08 07:03:04;;;;;;;115.30;18.80;;;;;;;;;;6142436;23;20734;-62
2023/11/08 07:05:58;;;;;;;258.50;26.00;;;;;;;;;;6140633;23;20025;-62
2023/11/08 07:08:52;;;;;;;121.20;19.83;;;;;;;;;;6140909;23;20426;-62
2023/11/08 07:11:46;;;;;;;143.65;22.10;;;;;;;;;;6141693;23;20030;-62
2023/11/08 07:14:33;;;;;;;56.13;17.10;;;;;;;;;;6140879;23;20026;-62
2023/11/08 07:17:30;;;;;;;28.83;12.52;;;;;;;;;;6140716;23;20027;-62
2023/11/08 07:20:21;;;;;;;34.55;13.50;;;;;;;;;;6142672;23;20025;-60
2023/11/08 07:23:15;;;;;;;27.13;12.60;;;;;;;;;;6141846;23;20080;-54
2023/11/08 07:26:09;;;;;;;28.63;12.95;;;;;;;;;;6140199;23;20030;-56
2023/11/08 07:29:04;;;;;;;30.15;12.95;;;;;;;;;;6140676;23;20017;-56
2023/11/08 07:31:57;;;;;;;27.38;12.70;;;;;;;;;;6140633;23;20025;-53
2023/11/08 07:34:44;;;;;;;32.83;13.43;;;;;;;;;;6140994;23;20021;-54
2023/11/08 07:37:39;;;;;;;24.17;11.48;;;;;;;;;;6141132;23;20028;-64
2023/11/08 07:40:11;;;;;;;21.70;11.02;;;;;;;;;;6141192;23;20105;-62
2023/11/08 07:42:45;;;;;;;27.17;11.27;;;;;;;;;;6141797;23;20081;-51
2023/11/08 07:45:32;;;;;;;32.75;12.20;;;;;;;;;;6140764;23;20029;-54
2023/11/08 07:48:26;;;;;;;26.50;10.57;;;;;;;;;;6142729;23;20059;-50
2023/11/08 07:51:14;;;;;;;29.92;11.65;;;;;;;;;;6140142;23;20026;-50
2023/11/08 07:54:10;;;;;;;19.75;10.40;;;;;;;;;;6141648;23;20539;-54
2023/11/08 07:56:55;;;;;;;19.67;10.55;;;;;;;;;;6139518;23;20467;-62
2023/11/08 07:59:49;;;;;;;20.90;10.07;;;;;;;;;;6140952;23;20033;-63
2023/11/08 08:02:36;;;;;;;21.25;9.50;;;;;;;;;;6142849;23;20025;-62
2023/11/08 08:05:30;;;;;;;20.83;10.02;;;;;;;;;;6144162;23;20029;-62
2023/11/08 08:08:25;;;;;;;19.25;8.68;;;;;;;;;;6143394;23;20108;-62
2023/11/08 08:11:18;;;;;;;19.27;9.48;;;;;;;;;;6142604;23;20025;-63
2023/11/08 08:14:05;;;;;;;20.50;9.82;;;;;;;;;;6143204;23;20025;-63
2023/11/08 08:17:02;;;;;;;24.25;11.07;;;;;;;;;;6143380;23;20026;-62
2023/11/08 08:19:47;;;;;;;20.52;9.00;;;;;;;;;;6141675;23;20033;-55
2023/11/08 08:22:40;;;;;;;16.15;7.80;;;;;;;;;;6141717;23;20072;-56
2023/11/08 08:25:34;;;;;;;18.05;9.07;;;;;;;;;;6141225;23;20048;-52
2023/11/08 08:28:27;;;;;;;18.27;8.55;;;;;;;;;;6141738;23;20043;-52
2023/11/08 08:31:15;;;;;;;14.65;7.53;;;;;;;;;;6142540;23;20032;-55
2023/11/08 08:34:08;;;;;;;24.17;9.60;;;;;;;;;;6141878;23;20029;-54
2023/11/08 08:36:58;;;;;;;20.67;8.75;;;;;;;;;;6141687;23;20025;-60
2023/11/08 08:39:53;;;;;;;16.65;8.02;;;;;;;;;;6141662;23;20034;-60
2023/11/08 08:42:46;;;;;;;15.70;8.45;;;;;;;;;;6143432;23;20030;-60
2023/11/08 08:45:33;;;;;;;19.88;8.07;;;;;;;;;;6142810;23;20080;-60
2023/11/08 08:48:27;;;;;;;12.95;5.97;;;;;;;;;;6143785;23;20028;-60
2023/11/08 08:51:14;;;;;;;15.85;7.75;;;;;;;;;;6141745;23;20030;-51
2023/11/08 08:54:08;;;;;;;11.27;5.90;;;;;;;;;;6141834;23;20033;-62
2023/11/08 08:56:58;;;;;;;13.27;6.50;;;;;;;;;;6141260;23;20028;-64
2023/11/08 08:59:50;;;;;;;10.90;5.60;;;;;;;;;;6142469;23;20071;-64
2023/11/08 09:02:37;;;;;;;7.35;4.95;;;;;;;;;;6142626;23;20104;-64
2023/11/08 09:05:32;;;;;;;10.85;6.03;;;;;;;;;;6141990;23;20021;-63
2023/11/08 09:08:25;;;;;;;12.00;5.13;;;;;;;;;;6142624;23;20578;-63
2023/11/08 09:11:12;;;;;;;13.38;5.88;;;;;;;;;;6142202;23;20029;-62
2023/11/08 09:14:06;;;;;;;11.50;5.63;;;;;;;;;;6141737;23;20092;-61
2023/11/08 09:16:53;;;;;;;12.75;6.38;;;;;;;;;;6141771;23;20021;-61
2023/11/08 09:19:47;;;;;;;12.30;4.55;;;;;;;;;;6141874;23;20029;-62
2023/11/08 09:22:35;;;;;;;7.47;4.32;;;;;;;;;;6141180;23;20100;-61
2023/11/08 09:25:36;;;;;;;7.40;4.43;;;;;;;;;;6141718;23;20025;-61
2023/11/08 09:28:37;;;;;;;11.18;4.65;;;;;;;;;;6140193;23;20029;-61
2023/11/08 09:31:26;;;;;;;10.43;4.45;;;;;;;;;;6141285;23;20033;-63
2023/11/08 09:34:18;;;;;;;9.38;4.03;;;;;;;;;;6142812;23;20025;-63
2023/11/08 09:37:07;;;;;;;7.70;4.25;;;;;;;;;;6141300;23;20025;-63
2023/11/08 09:40:00;;;;;;;11.73;5.20;;;;;;;;;;6142376;23;20526;-63
2023/11/08 09:42:56;;;;;;;8.20;4.00;;;;;;;;;;6141851;23;20025;-64
2023/11/08 09:45:52;;;;;;;15.30;4.68;;;;;;;;;;6142564;23;20033;-64
2023/11/08 09:48:42;;;;;;;7.25;4.18;;;;;;;;;;6140984;23;20032;-60
2023/11/08 09:51:34;;;;;;;9.95;4.40;;;;;;;;;;6140088;23;20025;-61
2023/11/08 09:54:21;;;;;;;11.05;4.90;;;;;;;;;;6141892;23;20090;-60
2023/11/08 09:57:15;;;;;;;7.30;4.05;;;;;;;;;;6140722;23;20022;-60
2023/11/08 10:00:03;;;;;;;10.27;3.80;;;;;;;;;;6142033;23;20021;-60
2023/11/08 10:02:58;;;;;;;7.78;4.20;;;;;;;;;;6140029;23;20026;-60
2023/11/08 10:05:46;;;;;;;5.93;3.97;;;;;;;;;;6141658;23;20025;-62
2023/11/08 10:08:39;;;;;;;6.03;3.83;;;;;;;;;;6142485;23;20025;-60
2023/11/08 10:11:30;;;;;;;8.48;4.38;;;;;;;;;;6140691;23;20021;-61
2023/11/08 10:14:32;;;;;;;10.60;4.85;;;;;;;;;;6142336;23;20029;-60
2023/11/08 10:17:18;;;;;;;10.70;5.07;;;;;;;;;;6139960;23;20025;-60
2023/11/08 10:20:35;;;;;;;9.10;4.90;;;;;;;;;;6139877;23;20112;-60
2023/11/08 10:23:31;;;;;;;6.82;4.68;;;;;;;;;;6141486;23;20048;-64
2023/11/08 10:26:36;;;;;;;7.30;5.22;;;;;;;;;;6141183;23;20100;-62
2023/11/08 10:29:25;;;;;;;14.38;5.32;;;;;;;;;;6141636;23;20851;-64
2023/11/08 10:32:19;;;;;;;9.18;5.40;;;;;;;;;;6140322;23;21075;-62
2023/11/08 10:35:14;;;;;;;11.77;5.87;;;;;;;;;;6141540;23;20656;-63
2023/11/08 10:38:07;;;;;;;7.93;5.35;;;;;;;;;;6141827;23;20026;-63
2023/11/08 10:41:01;;;;;;;9.70;5.38;;;;;;;;;;6140040;23;20021;-64
2023/11/08 10:44:07;;;;;;;7.35;5.05;;;;;;;;;;6142279;23;20826;-52
2023/11/08 10:47:01;;;;;;;16.00;4.93;;;;;;;;;;6140960;23;20659;-52
2023/11/08 10:49:50;;;;;;;6.57;4.40;;;;;;;;;;6140198;23;20026;-56
2023/11/08 10:52:42;;;;;;;8.10;4.53;;;;;;;;;;6141657;23;20075;-55
2023/11/08 10:55:30;;;;;;;7.10;4.68;;;;;;;;;;6140857;23;20021;-54
2023/11/08 10:58:25;;;;;;;4.50;3.13;;;;;;;;;;6140928;23;20080;-54
2023/11/08 11:01:13;;;;;;;6.47;3.30;;;;;;;;;;6142344;23;20029;-60
2023/11/08 11:04:13;;;;;;;4.70;3.15;;;;;;;;;;6142623;23;20021;-55
2023/11/08 11:07:01;;;;;;;7.10;3.90;;;;;;;;;;6141229;23;20053;-53
2023/11/08 11:09:55;;;;;;;6.32;3.30;;;;;;;;;;6141889;23;20022;-54
2023/11/08 11:13:04;;;;;;;4.55;3.17;;;;;;;;;;6141398;23;20035;-53
2023/11/08 11:15:57;;;;;;;4.30;3.17;;;;;;;;;;6141429;23;20542;-53
2023/11/08 11:19:08;;;;;;;7.82;2.95;;;;;;;;;;6140908;23;20026;-61
2023/11/08 11:22:05;;;;;;;4.60;3.03;;;;;;;;;;6142184;23;20018;-61
2023/11/08 11:24:53;;;;;;;6.53;2.90;;;;;;;;;;6142157;23;20033;-60
2023/11/08 11:27:53;;;;;;;6.53;2.90;;;;;;;;;;6141025;23;20029;-60
2023/11/08 11:30:42;;;;;;;3.03;2.40;;;;;;;;;;6141165;23;20029;-60
2023/11/08 11:33:34;;;;;;;6.32;2.58;;;;;;;;;;6139466;23;20022;-61
2023/11/08 11:36:21;;;;;;;5.47;3.22;;;;;;;;;;6142957;23;20029;-61
2023/11/08 11:39:19;;;;;;;4.22;2.90;;;;;;;;;;6144089;23;20029;-62
2023/11/08 11:42:16;;;;;;;6.68;3.20;;;;;;;;;;6141081;23;20021;-64
2023/11/08 11:45:08;;;;;;;6.25;3.33;;;;;;;;;;6144434;23;20882;-63
2023/11/08 11:48:01;;;;;;;5.65;3.08;;;;;;;;;;6142009;23;20040;-64
2023/11/08 11:50:48;;;;;;;3.80;3.22;;;;;;;;;;6143266;23;20101;-64
2023/11/08 11:53:43;;;;;;;7.68;4.00;;;;;;;;;;6140819;23;20036;-63
2023/11/08 11:56:37;;;;;;;7.10;4.38;;;;;;;;;;6142219;23;20120;-61
2023/11/08 11:59:31;;;;;;;7.50;4.22;;;;;;;;;;6142413;23;20030;-62
2023/11/08 12:02:19;;;;;;;9.55;4.78;;;;;;;;;;6142407;23;20467;-62
2023/11/08 12:05:13;;;;;;;10.82;4.43;;;;;;;;;;6141605;23;20337;-62
2023/11/08 12:07:59;;;;;;;7.25;3.80;;;;;;;;;;6142125;23;20045;-62
2023/11/08 12:11:10;;;;;;;9.60;4.70;;;;;;;;;;6142260;23;20677;-62
2023/11/08 12:13:57;;;;;;;5.63;3.92;;;;;;;;;;6143659;23;20044;-60
2023/11/08 12:16:51;;;;;;;7.78;3.70;;;;;;;;;;6142871;23;20087;-52
2023/11/08 12:19:39;;;;;;;9.23;4.63;;;;;;;;;;6141771;23;20718;-54
2023/11/08 12:22:34;;;;;;;10.45;4.57;;;;;;;;;;6143184;23;20088;-53
2023/11/08 12:25:21;;;;;;;7.70;4.80;;;;;;;;;;6142820;23;20030;-54
2023/11/08 12:28:21;;;;;;;8.98;4.30;;;;;;;;;;6141292;23;20025;-53
2023/11/08 12:31:20;;;;;;;7.30;4.60;;;;;;;;;;6143242;23;20075;-52
2023/11/08 12:34:12;;;;;;;7.00;4.70;;;;;;;;;;6143184;23;20029;-53
2023/11/08 12:37:06;;;;;;;7.55;4.57;;;;;;;;;;6144427;23;20128;-53
2023/11/08 12:40:19;;;;;;;7.10;4.45;;;;;;;;;;6140178;23;20029;-55
2023/11/08 12:43:14;;;;;;;9.23;4.78;;;;;;;;;;6144458;23;20024;-56
2023/11/08 12:46:26;;;;;;;8.30;5.00;;;;;;;;;;6143573;23;20017;-53
2023/11/08 12:49:17;;;;;;;6.50;5.05;;;;;;;;;;6143124;23;20709;-55
2023/11/08 12:52:12;;;;;;;9.10;5.30;;;;;;;;;;6142603;23;20029;-56
2023/11/08 12:55:07;;;;;;;11.82;5.25;;;;;;;;;;6142432;23;20049;-54
2023/11/08 12:58:19;;;;;;;8.73;5.03;;;;;;;;;;6142218;23;20033;-53
2023/11/08 13:01:06;;;;;;;10.77;5.25;;;;;;;;;;6141150;23;20033;-52
2023/11/08 13:04:00;;;;;;;10.75;5.18;;;;;;;;;;6141246;23;20797;-51
2023/11/08 13:06:48;;;;;;;8.07;5.38;;;;;;;;;;6141275;23;20360;-53
2023/11/08 13:09:42;;;;;;;10.13;6.10;;;;;;;;;;6141837;23;20025;-60
2023/11/08 13:12:29;;;;;;;12.10;5.80;;;;;;;;;;6140314;23;20052;-60
2023/11/08 13:15:23;;;;;;;11.55;6.00;;;;;;;;;;6141787;23;20529;-60
2023/11/08 13:18:10;;;;;;;9.90;5.85;;;;;;;;;;6142761;23;20021;-60
2023/11/08 13:21:04;;;;;;;11.77;6.30;;;;;;;;;;6141803;23;20024;-60
2023/11/08 13:23:51;;;;;;;10.68;5.35;;;;;;;;;;6139554;23;20030;-60
2023/11/08 13:26:52;;;;;;;13.85;5.50;;;;;;;;;;6139957;23;20088;-64
2023/11/08 13:29:47;;;;;;;13.57;6.25;;;;;;;;;;6141417;23;20029;-52
2023/11/08 13:32:40;;;;;;;16.20;6.65;;;;;;;;;;6139959;23;20104;-60
2023/11/08 13:35:27;;;;;;;12.30;6.10;;;;;;;;;;6141493;23;20036;-60
2023/11/08 13:38:21;;;;;;;15.55;6.30;;;;;;;;;;6140030;23;20551;-60
2023/11/08 13:41:15;;;;;;;15.80;6.85;;;;;;;;;;6141392;23;20751;-60
2023/11/08 13:44:02;;;;;;;18.35;6.53;;;;;;;;;;6139084;23;20827;-60
2023/11/08 13:46:56;;;;;;;12.30;6.18;;;;;;;;;;6139614;23;20026;-57
2023/11/08 13:49:38;;;;;;;18.95;6.28;;;;;;;;;;6143874;23;20032;-62
2023/11/08 13:52:32;;;;;;;13.50;6.00;;;;;;;;;;6141889;23;20030;-61
2023/11/08 13:55:19;;;;;;;19.73;6.97;;;;;;;;;;6141765;23;20025;-61
2023/11/08 13:58:13;;;;;;;18.67;6.97;;;;;;;;;;6141100;23;20032;-62
2023/11/08 14:01:06;;;;;;;15.75;6.53;;;;;;;;;;6140411;23;20029;-61
2023/11/08 14:04:00;;;;;;;13.30;6.00;;;;;;;;;;6141014;23;20076;-64
2023/11/08 14:06:46;;;;;;;13.07;5.78;;;;;;;;;;6141740;23;20096;-61
2023/11/08 14:09:40;;;;;;;12.00;4.70;;;;;;;;;;6141616;23;20076;-50
2023/11/08 14:12:28;;;;;;;9.73;5.07;;;;;;;;;;6141758;23;20018;-53
2023/11/08 14:15:24;;;;;;;14.20;4.72;;;;;;;;;;6142157;23;20060;-50
2023/11/08 14:18:17;;;;;;;8.13;4.28;;;;;;;;;;6140746;23;20025;-56
2023/11/08 14:21:11;;;;;;;7.95;4.20;;;;;;;;;;6140783;23;20029;-53
2023/11/08 14:23:57;;;;;;;7.45;3.90;;;;;;;;;;6138923;23;20025;-60
2023/11/08 14:26:58;;;;;;;10.43;4.03;;;;;;;;;;6140632;23;20072;-62
2023/11/08 14:29:54;;;;;;;8.60;4.15;;;;;;;;;;6140371;23;20080;-61
2023/11/08 14:32:52;;;;;;;6.28;3.63;;;;;;;;;;6139866;23;20364;-61
2023/11/08 14:35:39;;;;;;;8.98;3.55;;;;;;;;;;6140614;23;20021;-62
2023/11/08 14:38:35;;;;;;;9.50;3.25;;;;;;;;;;6139000;23;20033;-61
2023/11/08 14:41:21;;;;;;;7.60;3.78;;;;;;;;;;6139824;23;20109;-65
2023/11/08 14:44:15;;;;;;;6.68;3.70;;;;;;;;;;6140117;23;20084;-54
2023/11/08 14:47:03;;;;;;;7.05;3.80;;;;;;;;;;6141176;23;20030;-55
2023/11/08 14:49:57;;;;;;;6.63;3.80;;;;;;;;;;6140532;23;20463;-53
2023/11/08 14:52:43;;;;;;;5.28;3.65;;;;;;;;;;6141014;23;20104;-52
2023/11/08 14:55:37;;;;;;;5.60;3.38;;;;;;;;;;6140926;23;20081;-53
2023/11/08 14:58:24;;;;;;;5.93;2.95;;;;;;;;;;6140947;23;20499;-55
2023/11/08 15:01:18;;;;;;;6.22;2.78;;;;;;;;;;6139997;23;20107;-60
2023/11/08 15:04:07;;;;;;;3.95;2.95;;;;;;;;;;6142007;23;20107;-60
2023/11/08 15:06:59;;;;;;;5.10;3.33;;;;;;;;;;6141481;23;20072;-60
2023/11/08 15:10:08;;;;;;;6.72;3.05;;;;;;;;;;6143308;23;20121;-60
2023/11/08 15:13:00;;;;;;;5.10;2.95;;;;;;;;;;6141660;23;20030;-61
2023/11/08 15:15:47;;;;;;;4.85;3.42;;;;;;;;;;6142744;23;20036;-60
2023/11/08 15:48:38;;;;;;;5.13;2.58;;;;;;;;;;6172766;23;20057;-61
2023/11/08 15:51:25;;;;;;;7.13;2.55;;;;;;;;;;6172717;23;20029;-61
2023/11/08 15:54:19;;;;;;;4.47;2.60;;;;;;;;;;6172351;23;20463;-50
2023/11/08 15:57:07;;;;;;;6.90;2.92;;;;;;;;;;6172974;23;20362;-54
2023/11/08 16:00:00;;;;;;;4.28;2.60;;;;;;;;;;6173280;23;20434;-52
2023/11/08 16:02:47;;;;;;;4.90;2.67;;;;;;;;;;6172490;23;20029;-49
2023/11/08 16:05:42;;;;;;;2.90;2.47;;;;;;;;;;6174077;23;20021;-53
2023/11/08 16:08:28;;;;;;;5.78;2.70;;;;;;;;;;6173399;23;20367;-54
2023/11/08 16:11:22;;;;;;;4.18;2.65;;;;;;;;;;6172985;23;20029;-54
2023/11/08 16:14:10;;;;;;;5.43;2.75;;;;;;;;;;6174438;23;20018;-60
2023/11/08 16:17:07;;;;;;;7.07;2.95;;;;;;;;;;6172408;23;20466;-54
2023/11/08 16:19:55;;;;;;;12.48;2.90;;;;;;;;;;6174334;23;20083;-53
2023/11/08 16:22:48;;;;;;;8.93;3.00;;;;;;;;;;6173006;23;20636;-55
2023/11/08 16:25:35;;;;;;;7.07;2.70;;;;;;;;;;6173058;23;20025;-53
2023/11/08 16:28:29;;;;;;;5.85;2.95;;;;;;;;;;6171303;23;20021;-55
2023/11/08 16:31:17;;;;;;;3.88;2.33;;;;;;;;;;6173155;23;20542;-60
2023/11/08 16:34:11;;;;;;;7.03;2.40;;;;;;;;;;6152428;23;20040;-50
2023/11/08 16:36:41;;;;;;;3.83;2.63;;;;;;;;;;6171026;23;20414;-53
2023/11/08 16:39:17;;;;;;;6.53;2.65;;;;;;;;;;6170577;23;20036;-54
2023/11/08 16:42:03;;;;;;;5.13;2.85;;;;;;;;;;6169748;23;20063;-53
2023/11/08 16:44:56;;;;;;;4.53;2.28;;;;;;;;;;6170713;23;20025;-49
2023/11/08 16:47:50;;;;;;;4.45;2.40;;;;;;;;;;6168209;23;20028;-51
2023/11/08 16:50:43;;;;;;;6.82;3.20;;;;;;;;;;6170345;23;20064;-61
2023/11/08 16:53:30;;;;;;;3.45;2.60;;;;;;;;;;6169218;23;20028;-63
2023/11/08 16:56:04;;;;;;;4.90;2.80;;;;;;;;;;6170622;23;20032;-64
2023/11/08 16:58:41;;;;;;;7.47;3.35;;;;;;;;;;6167651;23;20021;-62
2023/11/08 17:01:29;;;;;;;5.00;3.00;;;;;;;;;;6168208;23;20035;-62
2023/11/08 17:04:21;;;;;;;7.28;2.97;;;;;;;;;;6170599;23;20025;-63
2023/11/08 17:07:08;;;;;;;5.85;3.15;;;;;;;;;;6168884;23;20052;-62
2023/11/08 17:10:03;;;;;;;5.30;3.10;;;;;;;;;;6168918;23;20794;-65
2023/11/08 17:12:50;;;;;;;4.40;3.20;;;;;;;;;;6169551;23;20076;-65
2023/11/08 17:15:41;;;;;;;6.93;3.50;;;;;;;;;;6167751;23;20116;-65